Ashley, Wisconsin
Current Conditions -  °F | °C
As of 4:40 AM on Friday 21 Nov 2014 (Local Time) from KCWA Reporting Station
Clear Clear  
Wind Chill:   Ceiling: Unl
Heat Index:   Visibility: 10mi
Dew Point:   Wind: 3mph
Humidity: 92%   Direction: 280°W
Pressure: 30.28"   Gusts: NA
Location:  44.7605°N, 89.5918°W
Report Text: KCWA 211040Z AUTO 28003KT 10SM CLR M17/M18 A3028 RMK AO2
Loading
Personal Weather Stations






























Interactive Weather Map New forecast layout! Learn more

10-Day Weather Forecast

Advertisements
Track Severe Weather on mobile